Time;durP1;ratioP1;P1;durP2;ratioP2;P2;SDS_P1;SDS_P2;PMS_P1;PMS_P2;Temp;Humidity;BMP_temperature;BMP_pressure;BME280_temperature;BME280_humidity;BME280_pressure;Samples;Min_cycle;Max_cycle;Signal;HPM_P1;HPM_P2
2021/06/02 00:00:43;;;;;;;5.83;5.10;;;;;;;15.62;100.00;101295.29;1819872;79;26229;-69
2021/06/02 00:03:15;;;;;;;6.03;4.43;;;;;;;15.62;100.00;101295.29;1805054;79;26235;-69
2021/06/02 00:05:47;;;;;;;6.10;4.70;;;;;;;15.50;100.00;101293.55;1797168;80;26301;-72
2021/06/02 00:08:18;;;;;;;6.07;5.33;;;;;;;15.76;100.00;101291.11;1797172;78;26284;-71
2021/06/02 00:10:49;;;;;;;5.67;5.17;;;;;;;15.75;100.00;101283.28;1788588;80;26254;-69
2021/06/02 00:13:20;;;;;;;5.97;5.13;;;;;;;15.55;100.00;101284.23;1788528;80;26240;-73
2021/06/02 00:15:51;;;;;;;5.37;4.50;;;;;;;15.63;100.00;101268.95;1803663;79;26378;-69
2021/06/02 00:18:21;;;;;;;6.33;4.53;;;;;;;15.42;100.00;101274.63;1805300;79;26727;-69
2021/06/02 00:20:54;;;;;;;5.93;4.90;;;;;;;15.58;100.00;101271.84;1805338;79;26732;-69
2021/06/02 00:23:24;;;;;;;5.13;4.63;;;;;;;15.67;100.00;101268.59;1805267;79;26233;-73
2021/06/02 00:25:54;;;;;;;5.60;4.63;;;;;;;15.50;100.00;101275.36;1805254;79;26218;-70
2021/06/02 00:28:24;;;;;;;5.57;4.40;;;;;;;15.40;100.00;101267.93;1805288;79;26322;-69
2021/06/02 00:30:54;;;;;;;7.73;5.50;;;;;;;15.51;100.00;101264.42;1805295;79;26888;-70
2021/06/02 00:33:25;;;;;;;7.53;4.90;;;;;;;15.47;100.00;101264.75;1805384;79;26232;-70
2021/06/02 00:35:55;;;;;;;5.83;4.73;;;;;;;15.43;100.00;101258.94;1805339;79;26746;-73
2021/06/02 00:38:26;;;;;;;7.03;4.93;;;;;;;15.09;100.00;101261.79;1805310;79;26830;-73
2021/06/02 00:40:56;;;;;;;6.77;4.67;;;;;;;15.03;100.00;101265.23;1805298;79;26310;-70
2021/06/02 00:43:28;;;;;;;7.03;5.17;;;;;;;15.28;100.00;101265.36;1805575;79;26307;-73
2021/06/02 00:45:59;;;;;;;6.37;4.80;;;;;;;15.41;100.00;101260.37;1805430;79;26706;-73
2021/06/02 00:48:29;;;;;;;5.00;4.50;;;;;;;15.39;100.00;101257.06;1805503;79;26262;-74
2021/06/02 00:50:59;;;;;;;4.90;4.40;;;;;;;15.30;100.00;101257.50;1805459;79;26746;-70
2021/06/02 00:53:30;;;;;;;5.67;5.07;;;;;;;15.20;100.00;101256.27;1805382;79;26264;-70
2021/06/02 00:56:04;;;;;;;5.27;4.33;;;;;;;15.30;100.00;101251.34;1805296;79;26241;-70
2021/06/02 00:58:37;;;;;;;5.37;4.80;;;;;;;15.33;100.00;101252.11;1805422;79;26246;-73
2021/06/02 01:01:09;;;;;;;5.07;4.67;;;;;;;15.24;100.00;101247.52;1805330;79;26295;-70
2021/06/02 01:03:40;;;;;;;4.33;3.93;;;;;;;15.27;100.00;101247.77;1805359;79;26275;-70
2021/06/02 01:06:10;;;;;;;4.97;4.27;;;;;;;15.11;100.00;101246.34;1805347;79;26824;-73
2021/06/02 01:08:43;;;;;;;5.90;4.57;;;;;;;14.88;100.00;101246.75;1805382;78;26409;-73
2021/06/02 01:11:14;;;;;;;4.73;4.23;;;;;;;14.93;100.00;101255.03;1795859;79;26349;-73
2021/06/02 01:13:45;;;;;;;6.17;4.60;;;;;;;15.08;100.00;101251.73;1794348;80;26304;-70
2021/06/02 01:16:16;;;;;;;6.30;4.30;;;;;;;15.07;100.00;101251.45;1794367;80;26246;-74
2021/06/02 01:18:47;;;;;;;5.93;4.87;;;;;;;14.94;100.00;101251.67;1794376;80;26751;-73
2021/06/02 01:21:22;;;;;;;6.87;4.43;;;;;;;14.72;100.00;101264.88;1794327;80;26315;-69
2021/06/02 01:23:55;;;;;;;5.93;4.57;;;;;;;14.82;100.00;101255.50;1794425;80;26299;-70
2021/06/02 01:26:27;;;;;;;5.30;4.30;;;;;;;14.76;100.00;101251.95;1794415;80;26295;-72
2021/06/02 01:28:59;;;;;;;4.57;3.93;;;;;;;14.80;100.00;101253.03;1794342;80;26658;-73
2021/06/02 01:31:43;;;;;;;6.10;4.27;;;;;;;14.72;100.00;101256.48;1794474;80;26299;-73
2021/06/02 01:34:20;;;;;;;5.50;4.30;;;;;;;14.74;100.00;101253.40;1795221;79;26692;-70
2021/06/02 01:37:02;;;;;;;5.00;4.50;;;;;;;14.92;100.00;101251.99;1794650;79;26692;-73
2021/06/02 01:39:45;;;;;;;5.47;4.30;;;;;;;14.66;100.00;101256.32;1794524;79;26307;-73
2021/06/02 01:42:35;;;;;;;5.90;4.80;;;;;;;14.46;100.00;101251.03;1794553;80;26689;-69
2021/06/02 01:45:19;;;;;;;4.80;4.20;;;;;;;14.50;100.00;101245.91;1794488;79;26222;-73
2021/06/02 01:48:28;;;;;;;7.90;4.73;;;;;;;14.33;100.00;101253.14;1794376;79;26230;-73
2021/06/02 01:51:52;;;;;;;5.17;4.50;;;;;;;14.19;100.00;101255.84;1794236;80;26730;-73
2021/06/02 01:54:49;;;;;;;5.40;4.63;;;;;;;14.44;100.00;101240.14;1794511;80;26265;-73
2021/06/02 01:57:36;;;;;;;5.50;4.10;;;;;;;14.17;100.00;101255.30;1794360;79;26226;-74
2021/06/02 02:00:44;;;;;;;4.43;4.03;;;;;;;14.11;100.00;101253.71;1794404;80;26661;-70
2021/06/02 02:03:33;;;;;;;5.20;4.70;;;;;;;14.32;100.00;101253.70;1794512;80;26234;-73
2021/06/02 02:06:10;;;;;;;5.50;4.20;;;;;;;14.11;100.00;101255.11;1795081;79;26303;-70
2021/06/02 02:08:49;;;;;;;5.03;4.37;;;;;;;13.98;100.00;101251.64;1794735;79;26234;-70
2021/06/02 02:11:31;;;;;;;5.77;4.40;;;;;;;14.20;100.00;101251.92;1794183;78;26347;-73
2021/06/02 02:14:25;;;;;;;5.97;4.43;;;;;;;14.31;100.00;101246.45;1794363;79;26289;-71
2021/06/02 02:17:25;;;;;;;5.83;4.63;;;;;;;13.99;100.00;101245.73;1789682;80;26296;-70
2021/06/02 02:20:02;;;;;;;7.13;4.63;;;;;;;14.02;100.00;101240.97;1794382;80;26254;-72
2021/06/02 02:22:39;;;;;;;6.33;4.60;;;;;;;14.13;100.00;101233.28;1794425;80;26234;-73
2021/06/02 02:25:13;;;;;;;4.90;4.30;;;;;;;13.86;100.00;101237.27;1794533;79;26237;-70
2021/06/02 02:27:49;;;;;;;5.70;4.80;;;;;;;13.86;100.00;101235.88;1794147;80;26230;-73
2021/06/02 02:30:23;;;;;;;7.63;5.00;;;;;;;14.12;100.00;101235.80;1794320;79;26233;-70
2021/06/02 02:33:05;;;;;;;6.57;4.70;;;;;;;14.22;100.00;101226.45;1794511;79;26319;-70
2021/06/02 02:35:42;;;;;;;4.93;4.20;;;;;;;14.12;100.00;101227.41;1794396;79;26296;-73
2021/06/02 02:38:19;;;;;;;6.00;4.83;;;;;;;13.73;100.00;101224.86;1794309;80;26296;-70
2021/06/02 02:40:56;;;;;;;6.23;5.00;;;;;;;13.57;100.00;101228.38;1794177;80;26229;-73
2021/06/02 02:43:40;;;;;;;5.10;4.63;;;;;;;13.75;100.00;101225.94;1794459;80;26617;-73
2021/06/02 02:46:13;;;;;;;6.70;4.67;;;;;;;13.68;100.00;101231.33;1794356;79;26676;-73
2021/06/02 02:48:46;;;;;;;7.43;4.90;;;;;;;13.70;100.00;101226.83;1794536;79;26233;-72
2021/06/02 02:51:29;;;;;;;6.80;5.53;;;;;;;13.65;100.00;101232.47;1794517;80;26295;-73
2021/06/02 02:54:04;;;;;;;5.87;4.97;;;;;;;13.57;100.00;101232.56;1794514;79;26673;-70
2021/06/02 02:56:42;;;;;;;6.57;5.23;;;;;;;13.61;100.00;101237.81;1794380;79;26234;-73
2021/06/02 02:59:17;;;;;;;6.83;5.13;;;;;;;13.60;100.00;101243.16;1794442;80;26277;-70
2021/06/02 03:01:50;;;;;;;7.10;5.23;;;;;;;13.51;100.00;101246.87;1794532;79;26299;-70
2021/06/02 03:04:23;;;;;;;5.67;4.97;;;;;;;13.66;100.00;101241.12;1794562;79;26218;-73
2021/06/02 03:06:56;;;;;;;6.10;5.00;;;;;;;13.82;100.00;101235.61;1794306;80;26684;-70
2021/06/02 03:09:35;;;;;;;8.57;5.63;;;;;;;13.88;100.00;101233.60;1794258;80;26273;-70
2021/06/02 03:12:10;;;;;;;7.23;5.07;;;;;;;13.78;100.00;101231.76;1794298;78;26285;-70
2021/06/02 03:14:48;;;;;;;5.70;5.00;;;;;;;13.56;100.00;101225.30;1794442;79;26246;-70
2021/06/02 03:17:44;;;;;;;6.23;4.77;;;;;;;13.68;100.00;101219.33;1971811;73;33491;-72
2021/06/02 03:20:20;;;;;;;6.10;5.10;;;;;;;13.59;100.00;101233.11;1934546;74;26232;-72
2021/06/02 03:23:00;;;;;;;5.70;5.10;;;;;;;13.39;100.00;101236.69;1934426;74;26212;-72
2021/06/02 03:25:35;;;;;;;5.57;5.07;;;;;;;13.56;100.00;101234.27;1934807;74;26298;-69
2021/06/02 03:28:11;;;;;;;5.77;5.20;;;;;;;13.54;100.00;101231.77;1934483;74;26204;-69
2021/06/02 03:30:45;;;;;;;6.07;5.10;;;;;;;13.58;100.00;101220.83;1934534;74;26212;-72
2021/06/02 03:33:25;;;;;;;6.20;5.03;;;;;;;13.70;100.00;101224.03;1934544;74;26395;-69
2021/06/02 03:36:01;;;;;;;6.30;5.20;;;;;;;13.40;100.00;101225.20;1934455;74;26265;-72
2021/06/02 03:38:38;;;;;;;5.87;4.93;;;;;;;13.22;100.00;101224.58;1934447;74;26199;-69
2021/06/02 03:41:11;;;;;;;10.00;5.70;;;;;;;13.45;100.00;101225.16;1934733;74;26308;-69
2021/06/02 03:43:44;;;;;;;6.17;5.13;;;;;;;13.34;100.00;101231.16;1934485;74;26737;-69
2021/06/02 03:46:21;;;;;;;6.23;5.27;;;;;;;13.47;100.00;101228.50;1934440;74;26274;-72
2021/06/02 03:48:57;;;;;;;5.80;5.20;;;;;;;13.44;100.00;101228.23;1934741;74;26265;-72
2021/06/02 03:51:37;;;;;;;5.80;5.20;;;;;;;13.26;100.00;101221.47;1934661;74;26616;-72
2021/06/02 03:54:17;;;;;;;6.67;5.40;;;;;;;13.05;100.00;101230.53;1934419;74;26309;-69
2021/06/02 03:57:07;;;;;;;6.83;5.07;;;;;;;13.01;100.00;101227.22;1952164;73;26296;-73
2021/06/02 03:59:41;;;;;;;8.30;5.23;;;;;;;13.02;100.00;101235.31;1952389;73;26171;-73
2021/06/02 04:02:20;;;;;;;6.93;5.53;;;;;;;12.91;100.00;101231.52;1839741;73;933080;-73
2021/06/02 04:05:25;;;;;;;7.53;5.63;;;;;;;12.93;100.00;101234.27;1797736;80;26303;-70
2021/06/02 04:08:00;;;;;;;7.20;6.50;;;;;;;12.97;100.00;101235.91;1732107;80;26832;-70
2021/06/02 04:10:38;;;;;;;7.70;6.20;;;;;;;12.92;100.00;101234.58;1780597;80;26316;-70
2021/06/02 04:13:15;;;;;;;7.73;5.90;;;;;;;13.05;100.00;101237.50;1780359;80;26277;-70
2021/06/02 04:15:48;;;;;;;6.57;5.90;;;;;;;13.01;100.00;101236.98;1780123;79;26333;-73
2021/06/02 04:18:21;;;;;;;8.53;6.30;;;;;;;13.04;100.00;101240.61;1774552;81;26380;-73
2021/06/02 04:20:53;;;;;;;8.13;6.33;;;;;;;13.05;100.00;101238.09;1774534;81;26666;-73
2021/06/02 04:23:24;;;;;;;7.77;5.80;;;;;;;13.12;100.00;101242.23;1774493;81;26317;-73
2021/06/02 04:25:55;;;;;;;7.50;5.67;;;;;;;13.17;100.00;101239.41;1774562;81;26239;-73
2021/06/02 04:28:26;;;;;;;7.77;5.93;;;;;;;13.16;100.00;101239.12;1774051;81;26235;-72
2021/06/02 04:30:59;;;;;;;7.23;5.67;;;;;;;13.03;100.00;101241.72;1774041;81;26662;-73
2021/06/02 04:33:32;;;;;;;8.43;5.77;;;;;;;13.09;100.00;101242.77;1773721;81;26309;-70
2021/06/02 04:36:03;;;;;;;9.30;5.90;;;;;;;13.22;100.00;101235.73;1773912;81;26670;-70
2021/06/02 04:38:34;;;;;;;6.77;5.37;;;;;;;13.15;100.00;101242.20;1773884;81;26760;-70
2021/06/02 04:41:07;;;;;;;7.43;5.57;;;;;;;13.08;100.00;101238.89;1773946;81;26349;-73
2021/06/02 04:43:38;;;;;;;7.40;5.53;;;;;;;13.25;100.00;101237.09;1774043;81;26246;-70
2021/06/02 04:46:09;;;;;;;7.70;6.13;;;;;;;13.21;100.00;101237.69;1773923;81;26286;-70
2021/06/02 04:48:39;;;;;;;7.27;6.30;;;;;;;13.21;100.00;101236.30;1773987;81;26316;-70
2021/06/02 04:51:39;;;;;;;8.20;6.10;;;;;;;13.36;100.00;101233.91;1773943;81;26685;-73
2021/06/02 04:54:33;;;;;;;7.90;5.67;;;;;;;13.37;100.00;101248.13;1680681;81;26360;-70
2021/06/02 04:57:29;;;;;;;6.80;5.47;;;;;;;13.46;100.00;101239.39;1773960;81;26308;-70
2021/06/02 05:00:22;;;;;;;8.30;6.07;;;;;;;13.51;100.00;101244.09;1774032;81;26239;-71
2021/06/02 05:03:42;;;;;;;7.17;5.73;;;;;;;13.67;100.00;101241.39;1773925;81;26239;-73
2021/06/02 05:06:52;;;;;;;6.77;5.30;;;;;;;13.66;100.00;101235.53;1773848;81;26227;-73
2021/06/02 05:09:46;;;;;;;7.37;5.70;;;;;;;13.54;100.00;101228.97;1774055;81;26227;-71
2021/06/02 05:12:50;;;;;;;9.67;5.57;;;;;;;13.72;100.00;101225.15;1763966;81;26678;-70
2021/06/02 05:15:53;;;;;;;9.20;6.23;;;;;;;13.69;100.00;101216.22;1774214;81;26230;-70
2021/06/02 05:18:59;;;;;;;7.27;5.63;;;;;;;13.69;100.00;101219.61;1773940;79;26371;-70
2021/06/02 05:22:06;;;;;;;9.07;6.13;;;;;;;13.69;100.00;101222.40;1771351;81;26744;-70
2021/06/02 05:25:06;;;;;;;8.00;6.07;;;;;;;13.68;100.00;101214.58;1752280;81;26215;-72
2021/06/02 05:28:06;;;;;;;12.23;6.47;;;;;;;13.80;100.00;101221.14;1773901;81;26230;-70
2021/06/02 05:31:06;;;;;;;8.20;6.17;;;;;;;13.93;100.00;101222.38;1774076;81;26235;-74
2021/06/02 05:34:22;;;;;;;8.80;6.10;;;;;;;14.05;100.00;101222.21;1743735;81;26314;-70
2021/06/02 05:37:10;;;;;;;11.47;6.33;;;;;;;13.98;100.00;101217.56;1773927;81;26239;-74
2021/06/02 05:40:18;;;;;;;7.77;6.10;;;;;;;14.06;100.00;101218.85;1773109;81;26234;-73
2021/06/02 05:43:11;;;;;;;7.77;6.50;;;;;;;14.13;100.00;101222.10;1788162;80;26829;-70
2021/06/02 05:46:37;;;;;;;11.50;7.67;;;;;;;14.26;100.00;101218.56;1758217;81;26329;-73
2021/06/02 05:49:56;;;;;;;8.70;6.80;;;;;;;14.49;100.00;101216.31;1732123;83;26356;-70
2021/06/02 05:53:04;;;;;;;10.67;7.00;;;;;;;14.54;100.00;101221.84;1764933;81;26314;-73
2021/06/02 05:55:50;;;;;;;9.80;7.30;;;;;;;14.61;100.00;101215.02;1720766;83;26262;-70
2021/06/02 05:58:51;;;;;;;10.63;8.13;;;;;;;14.70;100.00;101210.41;1764785;81;26314;-73
2021/06/02 06:01:40;;;;;;;11.80;7.83;;;;;;;14.73;100.00;101208.39;1733498;83;26255;-72
2021/06/02 06:04:56;;;;;;;11.23;7.47;;;;;;;14.90;100.00;101205.30;1764896;81;26671;-69
2021/06/02 06:07:47;;;;;;;12.13;7.43;;;;;;;14.95;100.00;101201.59;1733701;82;26796;-73
2021/06/02 06:10:45;;;;;;;9.30;7.40;;;;;;;14.97;100.00;101211.32;1764737;81;26774;-70
2021/06/02 06:13:35;;;;;;;14.77;8.80;;;;;;;15.14;100.00;101201.55;1733616;83;26329;-71
2021/06/02 06:17:06;;;;;;;13.17;8.27;;;;;;;15.13;100.00;101197.92;1765000;81;26240;-74
2021/06/02 06:19:59;;;;;;;10.37;7.60;;;;;;;15.26;100.00;101192.92;1664995;85;26394;-71
2021/06/02 06:23:00;;;;;;;11.73;7.57;;;;;;;15.33;100.00;101191.09;1684028;85;26292;-70
2021/06/02 06:25:34;;;;;;;14.43;8.27;;;;;;;15.49;100.00;101195.27;1676349;85;26352;-70
2021/06/02 06:28:09;;;;;;;12.50;8.17;;;;;;;15.59;100.00;101195.67;1676229;85;26896;-73
2021/06/02 06:30:43;;;;;;;10.77;8.30;;;;;;;15.68;100.00;101198.01;1649827;87;26499;-73
2021/06/02 06:33:16;;;;;;;10.83;8.27;;;;;;;15.66;100.00;101189.11;1676152;82;26708;-70
2021/06/02 06:35:48;;;;;;;11.87;9.00;;;;;;;15.88;100.00;101194.22;1676232;85;26795;-71
2021/06/02 06:38:23;;;;;;;11.23;7.97;;;;;;;15.82;100.00;101200.25;1649809;87;26321;-71
2021/06/02 06:40:55;;;;;;;12.67;8.80;;;;;;;15.76;100.00;101200.08;1676215;85;26413;-73
2021/06/02 06:43:27;;;;;;;13.23;8.37;;;;;;;15.92;100.00;101195.81;1676256;85;26767;-71
2021/06/02 06:46:00;;;;;;;14.07;8.77;;;;;;;16.01;100.00;101192.54;1649849;87;26395;-74
2021/06/02 06:48:31;;;;;;;11.90;7.83;;;;;;;16.13;100.00;101192.83;1676263;85;26432;-71
2021/06/02 06:51:02;;;;;;;11.30;6.97;;;;;;;16.20;100.00;101191.02;1676271;85;26327;-74
2021/06/02 06:53:33;;;;;;;8.40;6.80;;;;;;;16.30;100.00;101180.98;1685898;82;26316;-71
2021/06/02 06:56:04;;;;;;;11.67;8.37;;;;;;;16.32;100.00;101178.11;1758213;81;26331;-71
2021/06/02 06:58:34;;;;;;;13.17;8.70;;;;;;;16.45;100.00;101175.58;1788078;80;26758;-71
2021/06/02 07:01:05;;;;;;;10.57;7.77;;;;;;;16.53;100.00;101174.81;1788191;80;26282;-71
2021/06/02 07:03:35;;;;;;;9.87;7.53;;;;;;;16.57;100.00;101181.45;1788184;80;26293;-74
2021/06/02 07:06:07;;;;;;;13.33;8.47;;;;;;;16.71;100.00;101167.66;1788258;80;26676;-71
2021/06/02 07:08:38;;;;;;;11.57;7.70;;;;;;;16.74;100.00;101166.19;1788284;80;26315;-71
2021/06/02 07:11:08;;;;;;;12.97;8.67;;;;;;;16.91;100.00;101166.88;1788307;80;26239;-75
2021/06/02 07:13:40;;;;;;;9.83;7.67;;;;;;;16.96;100.00;101163.38;1788228;80;26336;-75
2021/06/02 07:16:12;;;;;;;10.10;7.07;;;;;;;17.23;100.00;101162.38;1788236;80;26282;-75
2021/06/02 07:18:44;;;;;;;9.67;7.83;;;;;;;17.27;100.00;101161.99;1780340;80;26698;-75
2021/06/02 07:21:16;;;;;;;10.73;8.17;;;;;;;17.45;100.00;101159.53;1775545;80;26285;-70
2021/06/02 07:23:46;;;;;;;15.37;8.23;;;;;;;17.52;100.00;101159.05;1777975;80;26238;-70
2021/06/02 07:26:16;;;;;;;11.47;8.80;;;;;;;17.67;100.00;101166.48;1775749;80;26337;-74
2021/06/02 07:28:46;;;;;;;7.83;7.03;;;;;;;17.72;100.00;101172.53;1777316;80;26686;-69
2021/06/02 07:31:15;;;;;;;12.43;8.13;;;;;;;17.81;100.00;101170.58;1781588;80;26248;-70
2021/06/02 07:33:47;;;;;;;13.07;8.50;;;;;;;18.09;100.00;101171.98;1781429;80;26246;-69
2021/06/02 07:36:17;;;;;;;12.40;7.67;;;;;;;18.37;100.00;101168.28;1814410;79;26331;-70
2021/06/02 07:38:47;;;;;;;11.73;7.57;;;;;;;18.59;100.00;101164.52;1814719;79;26326;-74
2021/06/02 07:41:17;;;;;;;10.47;8.20;;;;;;;18.74;100.00;101172.44;1743276;82;26365;-70
2021/06/02 07:43:47;;;;;;;9.17;7.33;;;;;;;18.92;100.00;101173.25;1814811;79;24703;-75
2021/06/02 07:46:16;;;;;;;10.17;7.77;;;;;;;18.92;100.00;101173.25;1815034;79;24149;-69
2021/06/02 07:48:46;;;;;;;13.83;7.50;;;;;;;19.02;100.00;101159.67;1814844;79;24882;-75
2021/06/02 07:51:16;;;;;;;10.63;8.07;;;;;;;19.21;100.00;101163.50;1814916;79;24235;-75
2021/06/02 07:53:46;;;;;;;11.97;7.40;;;;;;;19.36;100.00;101153.11;1814832;79;26671;-69
2021/06/02 07:56:16;;;;;;;7.53;6.60;;;;;;;19.42;100.00;101155.17;1814828;79;26748;-75
2021/06/02 07:58:46;;;;;;;12.60;7.13;;;;;;;19.50;100.00;101150.94;1814420;79;24247;-76
2021/06/02 08:01:15;;;;;;;10.73;7.07;;;;;;;19.64;100.00;101149.89;1814842;79;26726;-76
2021/06/02 08:03:45;;;;;;;8.57;6.77;;;;;;;19.79;100.00;101152.12;1814320;79;24259;-74
2021/06/02 08:06:15;;;;;;;9.77;7.00;;;;;;;19.87;100.00;101148.42;1815003;79;24662;-77
2021/06/02 08:08:45;;;;;;;9.20;6.63;;;;;;;20.04;100.00;101153.13;1786273;80;24221;-76
2021/06/02 08:11:15;;;;;;;8.90;6.50;;;;;;;20.30;100.00;101148.99;1814293;79;24165;-75
2021/06/02 08:13:45;;;;;;;8.43;6.33;;;;;;;20.43;100.00;101142.83;1814891;79;26344;-71
2021/06/02 08:16:14;;;;;;;9.60;6.73;;;;;;;20.61;100.00;101140.69;1815080;79;24173;-78
2021/06/02 08:18:44;;;;;;;9.70;6.43;;;;;;;20.83;100.00;101145.97;1805810;79;24638;-70
2021/06/02 08:21:14;;;;;;;7.00;6.00;;;;;;;21.02;100.00;101153.90;1763339;81;24250;-70
2021/06/02 08:23:44;;;;;;;8.33;6.10;;;;;;;21.24;100.00;101147.88;1820155;78;24237;-75
2021/06/02 08:26:13;;;;;;;10.37;6.97;;;;;;;21.27;100.00;101147.16;1775243;80;24257;-70
2021/06/02 08:28:43;;;;;;;10.50;6.17;;;;;;;21.41;100.00;101151.08;1772543;80;26733;-70
2021/06/02 08:31:13;;;;;;;7.10;5.93;;;;;;;21.60;100.00;101148.52;1772399;80;24165;-70
2021/06/02 08:33:43;;;;;;;6.27;5.63;;;;;;;21.72;100.00;101145.11;1772335;81;24167;-70
2021/06/02 08:36:13;;;;;;;10.63;5.90;;;;;;;21.85;100.00;101150.17;1772546;80;24229;-75
2021/06/02 08:38:43;;;;;;;6.87;5.50;;;;;;;21.92;100.00;101143.36;1772196;81;24645;-75
2021/06/02 08:41:13;;;;;;;9.33;5.80;;;;;;;21.95;100.00;101139.02;1772662;80;24179;-75
2021/06/02 08:43:44;;;;;;;8.40;5.30;;;;;;;22.18;100.00;101138.14;1772647;80;24281;-75
2021/06/02 08:46:16;;;;;;;6.77;5.27;;;;;;;22.31;100.00;101133.86;1772531;81;24178;-71
2021/06/02 08:48:49;;;;;;;6.80;5.20;;;;;;;22.29;100.00;101131.41;1753402;81;24221;-74
2021/06/02 08:51:20;;;;;;;8.50;4.97;;;;;;;22.41;100.00;101132.78;1772680;80;24606;-70
2021/06/02 08:53:51;;;;;;;7.27;5.50;;;;;;;22.52;100.00;101129.67;1772239;81;24621;-70
2021/06/02 08:56:21;;;;;;;7.43;5.50;;;;;;;22.53;100.00;101132.74;1772570;80;24209;-75
2021/06/02 08:58:51;;;;;;;8.60;6.10;;;;;;;22.73;100.00;101125.25;1786267;80;24185;-70
2021/06/02 09:01:23;;;;;;;5.13;4.63;;;;;;;22.82;100.00;101124.50;1814641;79;26659;-70
2021/06/02 09:03:53;;;;;;;6.87;5.37;;;;;;;22.84;100.00;101132.66;1815040;79;24667;-74
2021/06/02 09:06:24;;;;;;;8.63;4.67;;;;;;;22.84;100.00;101130.64;1814908;79;24293;-71
2021/06/02 09:08:56;;;;;;;7.17;5.03;;;;;;;22.86;100.00;101130.27;1815059;79;24169;-75
2021/06/02 09:11:28;;;;;;;7.33;5.07;;;;;;;22.73;100.00;101135.75;1786239;80;24158;-76
2021/06/02 09:14:00;;;;;;;6.97;4.07;;;;;;;22.76;100.00;101141.55;1815008;79;24185;-70
2021/06/02 09:16:30;;;;;;;5.97;4.27;;;;;;;22.64;100.00;101144.37;1814699;79;24145;-76
2021/06/02 09:19:02;;;;;;;7.33;4.00;;;;;;;22.86;100.00;101136.76;1814807;79;24212;-71
2021/06/02 09:21:34;;;;;;;9.03;4.43;;;;;;;22.85;100.00;101138.55;1786581;80;24207;-71
2021/06/02 09:24:06;;;;;;;7.77;3.70;;;;;;;22.92;100.00;101144.41;1730550;82;26741;-71
2021/06/02 09:26:35;;;;;;;6.43;4.47;;;;;;;22.59;100.00;101145.45;1730632;83;24198;-76
2021/06/02 09:29:09;;;;;;;6.07;4.73;;;;;;;22.66;100.00;101142.84;1748309;82;24197;-71
2021/06/02 09:31:41;;;;;;;8.17;4.97;;;;;;;22.83;100.00;101143.16;1752458;82;24273;-71
2021/06/02 09:34:18;;;;;;;5.50;4.40;;;;;;;22.93;100.00;101144.65;1752433;82;24350;-72
2021/06/02 09:36:50;;;;;;;4.13;3.33;;;;;;;22.94;100.00;101137.19;1809823;79;24213;-71
2021/06/02 09:39:23;;;;;;;10.20;4.53;;;;;;;22.82;100.00;101139.25;1809885;79;24238;-75
2021/06/02 09:41:57;;;;;;;5.97;4.10;;;;;;;23.24;100.00;101142.45;1758290;82;24747;-71
2021/06/02 09:44:28;;;;;;;5.28;4.30;;;;;;;23.22;100.00;101139.17;1758195;82;24158;-72
2021/06/02 09:47:01;;;;;;;5.67;4.37;;;;;;;23.35;100.00;101131.64;1758505;81;24244;-72
2021/06/02 09:49:33;;;;;;;5.30;3.90;;;;;;;23.45;100.00;101132.53;1755550;81;24263;-71
2021/06/02 09:52:03;;;;;;;6.67;3.80;;;;;;;23.42;100.00;101130.41;1786215;80;24670;-74
2021/06/02 09:54:33;;;;;;;5.40;3.87;;;;;;;23.55;100.00;101128.33;1732979;81;24240;-73
2021/06/02 09:57:08;;;;;;;7.20;4.37;;;;;;;23.67;100.00;101123.97;1758706;81;24220;-72
2021/06/02 09:59:54;;;;;;;7.97;3.80;;;;;;;23.77;100.00;101123.42;1755618;81;24638;-74
2021/06/02 10:02:25;;;;;;;7.42;3.83;;;;;;;23.38;100.00;101129.48;1753820;82;24184;-71
2021/06/02 10:05:04;;;;;;;6.77;4.00;;;;;;;23.61;100.00;101124.63;1734303;81;24259;-73
2021/06/02 10:07:37;;;;;;;6.93;4.00;;;;;;;23.54;100.00;101128.09;1764165;80;24721;-71
2021/06/02 10:10:13;;;;;;;7.37;3.47;;;;;;;23.70;100.00;101116.77;1741871;81;24293;-71
2021/06/02 10:12:57;;;;;;;4.15;3.47;;;;;;;23.55;100.00;101119.82;1771971;80;24297;-71
2021/06/02 10:15:34;;;;;;;6.08;3.15;;;;;;;23.57;100.00;101120.30;1749432;81;24621;-74
2021/06/02 10:18:06;;;;;;;3.37;2.70;;;;;;;23.66;100.00;101122.31;1775623;80;24661;-71
2021/06/02 10:20:36;;;;;;;3.70;3.10;;;;;;;23.61;100.00;101123.22;1754950;80;24238;-71
2021/06/02 10:23:06;;;;;;;5.93;3.13;;;;;;;23.56;100.00;101121.47;1815014;79;24641;-71
2021/06/02 10:25:36;;;;;;;4.93;3.10;;;;;;;23.39;100.00;101129.73;1815029;79;24263;-74
2021/06/02 10:28:08;;;;;;;5.87;3.30;;;;;;;23.69;100.00;101124.44;1814080;79;24612;-71
2021/06/02 10:30:38;;;;;;;4.15;2.87;;;;;;;23.77;100.00;101122.59;1815275;78;24177;-74
2021/06/02 10:33:10;;;;;;;5.33;2.97;;;;;;;24.09;100.00;101115.66;1814822;79;24176;-71
2021/06/02 10:35:39;;;;;;;4.47;3.00;;;;;;;24.26;100.00;101115.27;1814998;79;24612;-74
2021/06/02 10:38:10;;;;;;;4.42;3.25;;;;;;;23.88;100.00;101109.48;1814861;79;24157;-72
2021/06/02 10:40:42;;;;;;;4.27;3.00;;;;;;;23.94;100.00;101107.42;1813659;79;24628;-71
2021/06/02 10:43:15;;;;;;;4.15;2.87;;;;;;;23.89;100.00;101109.72;1743923;82;24716;-71
2021/06/02 10:45:49;;;;;;;4.22;2.75;;;;;;;24.28;100.00;101108.63;1776892;78;24237;-71
2021/06/02 10:48:25;;;;;;;5.27;3.00;;;;;;;24.09;100.00;101110.60;1803677;79;24168;-71
2021/06/02 10:50:55;;;;;;;5.35;3.17;;;;;;;24.58;100.00;101101.77;1800168;79;24242;-74
2021/06/02 10:53:28;;;;;;;3.83;3.10;;;;;;;24.20;100.00;101107.42;1811513;79;24146;-74
2021/06/02 10:56:01;;;;;;;5.58;3.00;;;;;;;24.35;100.00;101107.95;1824565;79;24622;-71
2021/06/02 10:58:35;;;;;;;2.70;2.50;;;;;;;24.19;100.00;101103.77;1824406;79;24230;-74
2021/06/02 11:01:14;;;;;;;5.90;3.00;;;;;;;24.31;100.00;101096.52;1824551;79;24630;-74
2021/06/02 11:03:45;;;;;;;5.25;3.20;;;;;;;24.32;100.00;101094.52;1819554;79;24207;-71
2021/06/02 11:06:36;;;;;;;4.60;3.75;;;;;;;24.59;100.00;101100.58;1808560;79;24239;-73
2021/06/02 11:09:13;;;;;;;3.03;2.73;;;;;;;24.09;100.00;101098.63;1824394;79;24712;-73
2021/06/02 11:11:46;;;;;;;4.53;3.15;;;;;;;24.77;100.00;101081.86;1824377;79;24274;-73
2021/06/02 11:14:27;;;;;;;3.40;2.62;;;;;;;24.18;100.00;101084.25;1824397;78;24618;-73
2021/06/02 11:17:18;;;;;;;5.50;2.70;;;;;;;24.57;100.00;101083.67;1824376;79;24168;-74
2021/06/02 11:19:56;;;;;;;5.47;3.27;;;;;;;24.58;100.00;101080.47;1820728;78;24251;-72
2021/06/02 11:22:28;;;;;;;3.00;2.70;;;;;;;24.64;100.00;101080.41;1808587;79;24171;-71
2021/06/02 11:24:59;;;;;;;3.62;2.80;;;;;;;24.20;100.00;101085.55;1808688;78;24611;-71
2021/06/02 11:27:36;;;;;;;4.22;3.00;;;;;;;24.59;100.00;101069.93;1819329;79;24172;-72
2021/06/02 11:30:20;;;;;;;2.75;2.40;;;;;;;24.68;100.00;101071.35;1824504;78;24183;-71
2021/06/02 11:32:55;;;;;;;5.70;3.50;;;;;;;25.13;100.00;101072.62;1821859;79;24618;-72
2021/06/02 11:35:43;;;;;;;2.95;2.33;;;;;;;25.18;100.00;101068.05;1799059;79;24204;-73
2021/06/02 11:38:13;;;;;;;4.08;3.67;;;;;;;25.29;100.00;101068.45;1808910;79;24176;-71
2021/06/02 11:40:43;;;;;;;2.87;2.20;;;;;;;25.23;100.00;101069.16;1800809;79;24290;-71
2021/06/02 11:43:14;;;;;;;5.10;3.87;;;;;;;24.87;100.00;101070.52;1814200;79;24297;-74
2021/06/02 11:45:45;;;;;;;5.42;3.17;;;;;;;25.17;100.00;101072.08;1824856;78;24252;-72
2021/06/02 11:48:23;;;;;;;3.37;2.83;;;;;;;24.52;100.00;101074.06;1810815;78;24225;-72
2021/06/02 11:50:54;;;;;;;2.60;2.20;;;;;;;24.09;100.00;101078.76;1810982;78;24332;-75
2021/06/02 11:53:26;;;;;;;4.08;2.58;;;;;;;24.05;100.00;101078.68;1810967;79;24724;-73
2021/06/02 11:55:58;;;;;;;2.62;2.42;;;;;;;24.59;100.00;101075.61;1811576;78;24167;-75
2021/06/02 11:58:29;;;;;;;2.40;2.20;;;;;;;24.25;100.00;101081.59;1810935;78;24614;-71
2021/06/02 12:00:59;;;;;;;2.22;2.02;;;;;;;25.08;100.00;101074.35;1810886;78;24222;-74
2021/06/02 12:03:29;;;;;;;2.95;2.37;;;;;;;25.32;100.00;101073.39;1810829;78;24152;-72